createdAt,value
2022-10-11T00:05:29.364Z,963.78
2022-10-11T00:11:01.229Z,963.82
2022-10-11T00:16:32.985Z,963.84
2022-10-11T00:27:36.454Z,963.98
2022-10-11T00:33:08.624Z,964.04
2022-10-11T00:38:39.951Z,964.08
2022-10-11T00:44:11.376Z,964.16
2022-10-11T00:49:42.742Z,964.26
2022-10-11T00:55:14.329Z,964.26
2022-10-11T01:00:45.940Z,964.30
2022-10-11T01:06:17.743Z,964.28
2022-10-11T01:11:49.454Z,964.28
2022-10-11T01:22:55.660Z,964.26
2022-10-11T01:28:27.476Z,964.26
2022-10-11T01:39:30.981Z,964.14
2022-10-11T01:45:03.054Z,964.14
2022-10-11T02:01:40.855Z,964.14
2022-10-11T02:07:12.849Z,964.14
2022-10-11T02:12:44.506Z,964.14
2022-10-11T02:18:16.435Z,964.08
2022-10-11T02:29:19.817Z,964.06
2022-10-11T02:34:51.623Z,964.06
2022-10-11T02:40:23.528Z,964.04
2022-10-11T02:51:27.273Z,964.02
2022-10-11T02:56:58.721Z,964.00
2022-10-11T03:02:30.712Z,964.00
2022-10-11T03:08:05.021Z,964.00
2022-10-11T03:13:37.062Z,964.00
2022-10-11T03:19:08.668Z,964.06
2022-10-11T03:24:40.597Z,964.16
2022-10-11T03:30:16.118Z,964.30
2022-10-11T03:35:44.183Z,964.39
2022-10-11T03:41:15.998Z,964.49
2022-10-11T03:46:47.640Z,964.55
2022-10-11T03:52:19.531Z,964.57
2022-10-11T03:57:51.339Z,964.61
2022-10-11T04:03:23.219Z,964.63
2022-10-11T04:08:55.144Z,964.65
2022-10-11T04:19:59.073Z,964.67
2022-10-11T04:25:30.831Z,964.65
2022-10-11T04:31:02.376Z,964.65
2022-10-11T04:42:06.756Z,964.67
2022-10-11T05:04:14.491Z,964.75
2022-10-11T05:09:46.756Z,964.77
2022-10-11T05:15:18.852Z,964.75
2022-10-11T05:20:50.515Z,964.73
2022-10-11T05:26:22.342Z,964.77
2022-10-11T05:31:54.018Z,964.79
2022-10-11T05:37:25.846Z,964.79
2022-10-11T05:42:57.683Z,964.81
2022-10-11T05:48:29.548Z,964.81
2022-10-11T05:54:01.379Z,964.85
2022-10-11T05:59:33.805Z,964.92
2022-10-11T06:10:39.591Z,965.02
2022-10-11T06:16:11.242Z,965.06
2022-10-11T06:27:14.506Z,965.14
2022-10-11T06:38:20.098Z,965.18
2022-10-11T06:43:52.466Z,965.22
2022-10-11T06:49:24.500Z,965.26
2022-10-11T06:54:56.481Z,965.28
2022-10-11T07:00:28.326Z,965.34
2022-10-11T07:06:02.751Z,965.35
2022-10-11T07:17:05.667Z,965.43
2022-10-11T07:22:37.460Z,965.47
2022-10-11T07:28:09.252Z,965.53
2022-10-11T07:33:41.024Z,965.53
2022-10-11T07:39:14.786Z,965.59
2022-10-11T07:44:46.675Z,965.63
2022-10-11T07:50:18.916Z,965.63
2022-10-11T07:55:50.739Z,965.69
2022-10-11T08:01:22.352Z,965.69
2022-10-11T08:17:57.761Z,965.79
2022-10-11T08:23:31.024Z,965.81
2022-10-11T08:29:02.881Z,965.82
2022-10-11T08:34:34.675Z,965.82
2022-10-11T08:45:36.034Z,965.84
2022-10-11T08:51:07.694Z,965.88
2022-10-11T08:56:39.569Z,965.92
2022-10-11T09:02:11.457Z,965.94
2022-10-11T09:07:43.250Z,965.94
2022-10-11T09:13:14.927Z,965.96
2022-10-11T09:24:16.229Z,965.92
2022-10-11T09:35:17.517Z,965.92
2022-10-11T09:40:49.230Z,965.92
2022-10-11T09:51:50.829Z,965.88
2022-10-11T09:57:22.684Z,965.86
2022-10-11T10:02:54.928Z,965.86
2022-10-11T10:08:27.028Z,965.86
2022-10-11T10:24:58.124Z,965.86
2022-10-11T10:30:34.516Z,965.86
2022-10-11T10:36:02.005Z,965.90
2022-10-11T10:41:33.642Z,965.90
2022-10-11T10:47:05.542Z,965.92
2022-10-11T10:52:37.348Z,965.90
2022-10-11T10:58:08.938Z,965.90
2022-10-11T11:03:40.791Z,965.86
2022-10-11T11:09:12.669Z,965.81
2022-10-11T11:16:54.544Z,965.73
2022-10-11T11:22:28.054Z,965.71
2022-10-11T11:27:56.728Z,965.63
2022-10-11T11:33:28.254Z,965.61
2022-10-11T11:39:00.166Z,965.59
2022-10-11T11:44:31.782Z,965.55
2022-10-11T11:50:03.565Z,965.49
2022-10-11T11:55:35.386Z,965.51
2022-10-11T12:06:47.705Z,965.53
2022-10-11T12:12:08.559Z,965.49
2022-10-11T12:17:40.121Z,965.47
2022-10-11T12:23:13.183Z,965.45
2022-10-11T12:28:43.703Z,965.41
2022-10-11T12:34:15.595Z,965.39
2022-10-11T12:39:47.489Z,965.35
2022-10-11T12:45:18.844Z,965.32
2022-10-11T12:50:50.293Z,965.28
2022-10-11T12:56:21.918Z,965.28
2022-10-11T13:01:53.753Z,965.26
2022-10-11T13:07:25.499Z,965.24
2022-10-11T13:12:57.300Z,965.22
2022-10-11T13:18:28.917Z,965.22
2022-10-11T13:24:00.829Z,965.26
2022-10-11T13:29:32.709Z,965.26
2022-10-11T13:35:04.509Z,965.26
2022-10-11T13:40:36.273Z,965.24
2022-10-11T13:46:08.856Z,965.24
2022-10-11T13:51:40.536Z,965.18
2022-10-11T13:57:12.418Z,965.22
2022-10-11T14:02:44.174Z,965.22
2022-10-11T14:08:16.503Z,965.22
2022-10-11T14:13:48.373Z,965.20
2022-10-11T14:19:20.197Z,965.18
2022-10-11T14:24:53.735Z,965.16
2022-10-11T14:30:27.120Z,965.14
2022-10-11T14:35:57.502Z,965.14
2022-10-11T14:41:29.294Z,965.16
2022-10-11T14:52:34.855Z,965.12
2022-10-11T15:03:38.615Z,965.08
2022-10-11T15:14:40.689Z,965.10
2022-10-11T15:25:44.234Z,965.08
2022-10-11T15:31:15.706Z,965.10
2022-10-11T15:36:53.595Z,965.14
2022-10-11T15:42:25.613Z,965.16
2022-10-11T15:47:57.839Z,965.14
2022-10-11T15:53:29.742Z,965.14
2022-10-11T16:04:33.708Z,965.16
2022-10-11T16:15:43.971Z,965.12
2022-10-11T16:21:18.415Z,965.16
2022-10-11T16:26:50.630Z,965.18
2022-10-11T16:32:23.136Z,965.18
2022-10-11T16:43:26.878Z,965.24
2022-10-11T16:48:58.656Z,965.26
2022-10-11T16:54:30.387Z,965.30
2022-10-11T17:02:15.513Z,965.39
2022-10-11T17:07:47.272Z,965.41
2022-10-11T17:18:50.865Z,965.41
2022-10-11T17:24:22.960Z,965.41
2022-10-11T17:29:54.654Z,965.45
2022-10-11T17:52:07.140Z,965.49
2022-10-11T17:54:30.684Z,965.57
2022-10-11T18:00:02.170Z,965.51
2022-10-11T18:05:34.131Z,965.53
2022-10-11T18:16:39.701Z,965.53
2022-10-11T18:22:11.893Z,965.49
2022-10-11T18:27:43.745Z,965.49
2022-10-11T18:33:15.686Z,965.45
2022-10-11T18:38:47.864Z,965.43
2022-10-11T18:44:19.564Z,965.39
2022-10-11T18:55:23.144Z,965.37
2022-10-11T19:00:55.080Z,965.35
2022-10-11T19:06:26.725Z,965.37
2022-10-11T19:11:58.743Z,965.37
2022-10-11T19:17:30.763Z,965.39
2022-10-11T19:23:02.666Z,965.41
2022-10-11T19:28:34.326Z,965.39
2022-10-11T19:34:06.144Z,965.39
2022-10-11T19:39:41.795Z,965.37
2022-10-11T19:45:13.526Z,965.37
2022-10-11T19:50:45.600Z,965.37
2022-10-11T19:56:17.896Z,965.34
2022-10-11T20:01:52.999Z,965.35
2022-10-11T20:07:22.119Z,965.34
2022-10-11T20:12:54.133Z,965.37
2022-10-11T20:18:26.001Z,965.41
2022-10-11T20:23:57.693Z,965.41
2022-10-11T20:35:00.503Z,965.49
2022-10-11T20:40:32.213Z,965.47
2022-10-11T20:46:04.010Z,965.47
2022-10-11T20:51:35.605Z,965.45
2022-10-11T20:57:07.383Z,965.45
2022-10-11T21:02:38.796Z,965.43
2022-10-11T21:08:10.392Z,965.41
2022-10-11T21:13:42.191Z,965.41
2022-10-11T21:19:13.780Z,965.43
2022-10-11T21:24:47.181Z,965.41
2022-10-11T21:30:18.981Z,965.41
2022-10-11T21:35:50.702Z,965.41
2022-10-11T21:41:22.222Z,965.41
2022-10-11T21:47:06.628Z,965.41
2022-10-11T21:52:25.956Z,965.39
2022-10-11T21:57:57.908Z,965.37
2022-10-11T22:03:29.625Z,965.35
2022-10-11T22:09:01.477Z,965.34
2022-10-11T22:14:33.226Z,965.35
2022-10-11T22:20:06.189Z,965.30
2022-10-11T22:25:37.913Z,965.28
2022-10-11T22:31:09.619Z,965.26
2022-10-11T22:36:42.702Z,965.22
2022-10-11T22:42:16.810Z,965.24
2022-10-11T22:53:17.579Z,965.20
2022-10-11T22:58:49.138Z,965.18
2022-10-11T23:04:20.737Z,965.16
2022-10-11T23:09:52.139Z,965.18
2022-10-11T23:15:25.586Z,965.18
2022-10-11T23:20:57.180Z,965.20
2022-10-11T23:32:00.042Z,965.20
2022-10-11T23:37:32.067Z,965.20
2022-10-11T23:43:03.806Z,965.22
2022-10-11T23:48:35.294Z,965.26
2022-10-11T23:54:07.122Z,965.24
2022-10-11T23:59:38.771Z,965.28
